createdAt,value
2022-12-04T00:01:25.857Z,4.46
2022-12-04T00:03:54.350Z,4.45
2022-12-04T00:06:23.604Z,4.42
2022-12-04T00:08:52.501Z,4.40
2022-12-04T00:11:24.937Z,4.36
2022-12-04T00:13:52.841Z,4.37
2022-12-04T00:16:23.249Z,4.39
2022-12-04T00:18:51.473Z,4.36
2022-12-04T00:21:20.976Z,4.33
2022-12-04T00:23:49.001Z,4.31
2022-12-04T00:26:21.917Z,4.27
2022-12-04T00:28:51.689Z,4.32
2022-12-04T00:31:22.258Z,4.30
2022-12-04T00:33:50.449Z,4.33
2022-12-04T00:36:20.948Z,4.32
2022-12-04T00:38:49.100Z,4.31
2022-12-04T00:41:19.752Z,4.36
2022-12-04T00:43:47.854Z,4.39
2022-12-04T00:46:18.088Z,4.43
2022-12-04T00:48:46.308Z,4.47
2022-12-04T00:51:17.098Z,4.45
2022-12-04T00:53:45.317Z,4.46
2022-12-04T00:56:18.446Z,4.42
2022-12-04T00:58:47.187Z,4.37
2022-12-04T01:01:18.434Z,4.30
2022-12-04T01:03:46.895Z,4.26
2022-12-04T01:06:20.378Z,4.18
2022-12-04T01:08:48.710Z,4.12
2022-12-04T01:11:17.066Z,4.09
2022-12-04T01:13:45.122Z,4.07
2022-12-04T01:16:18.981Z,4.07
2022-12-04T01:18:47.282Z,4.10
2022-12-04T01:21:15.630Z,4.12
2022-12-04T01:23:44.043Z,4.14
2022-12-04T01:26:12.297Z,4.16
2022-12-04T01:28:40.575Z,4.18
2022-12-04T01:31:11.440Z,4.14
2022-12-04T01:33:41.670Z,4.12
2022-12-04T01:36:11.808Z,4.12
2022-12-04T01:38:40.005Z,4.14
2022-12-04T01:41:09.335Z,4.15
2022-12-04T01:43:38.641Z,4.13
2022-12-04T01:46:08.629Z,4.10
2022-12-04T01:48:39.101Z,4.08
2022-12-04T01:51:11.641Z,4.07
2022-12-04T01:53:41.508Z,4.05
2022-12-04T01:56:09.773Z,4.09
2022-12-04T01:58:41.311Z,4.10
2022-12-04T02:01:09.916Z,4.13
2022-12-04T02:03:38.995Z,4.13
2022-12-04T02:06:09.177Z,4.16
2022-12-04T02:08:37.608Z,4.18
2022-12-04T02:11:13.892Z,4.21
2022-12-04T02:13:47.775Z,4.21
2022-12-04T02:16:20.811Z,4.22
2022-12-04T02:18:58.169Z,4.25
2022-12-04T02:21:32.843Z,4.25
2022-12-04T02:24:23.521Z,4.24
2022-12-04T02:26:55.004Z,4.25
2022-12-04T02:29:31.422Z,4.22
2022-12-04T02:32:04.617Z,4.24
2022-12-04T02:34:38.882Z,4.24
2022-12-04T02:37:18.076Z,4.22
2022-12-04T02:39:51.813Z,4.25
2022-12-04T02:42:23.425Z,4.25
2022-12-04T02:44:58.048Z,4.27
2022-12-04T02:47:27.421Z,4.30
2022-12-04T02:49:58.249Z,4.32
2022-12-04T02:52:30.738Z,4.34
2022-12-04T02:55:04.105Z,4.34
2022-12-04T02:57:39.872Z,4.35
2022-12-04T03:00:10.797Z,4.35
2022-12-04T03:02:42.355Z,4.36
2022-12-04T03:05:13.337Z,4.36
2022-12-04T03:07:45.983Z,4.35
2022-12-04T03:10:17.186Z,4.35
2022-12-04T03:12:49.339Z,4.36
2022-12-04T03:15:22.758Z,4.36
2022-12-04T03:17:54.575Z,4.37
2022-12-04T03:20:22.982Z,4.38
2022-12-04T03:22:54.712Z,4.38
2022-12-04T03:25:25.112Z,4.38
2022-12-04T03:27:58.361Z,4.39
2022-12-04T03:30:31.685Z,4.39
2022-12-04T03:33:04.384Z,4.38
2022-12-04T03:35:35.462Z,4.35
2022-12-04T03:38:06.323Z,4.35
2022-12-04T03:40:37.111Z,4.36
2022-12-04T03:43:09.791Z,4.37
2022-12-04T03:45:43.265Z,4.39
2022-12-04T03:48:22.656Z,4.40
2022-12-04T03:50:53.914Z,4.40
2022-12-04T03:53:26.951Z,4.40
2022-12-04T03:55:59.400Z,4.43
2022-12-04T03:58:30.704Z,4.43
2022-12-04T04:01:01.047Z,4.44
2022-12-04T04:03:30.549Z,4.45
2022-12-04T04:06:01.007Z,4.38
2022-12-04T04:08:34.060Z,4.34
2022-12-04T04:11:07.091Z,4.31
2022-12-04T04:13:56.476Z,4.30
2022-12-04T04:16:47.164Z,4.29
2022-12-04T04:19:34.681Z,4.31
2022-12-04T04:22:23.596Z,4.32
2022-12-04T04:24:56.482Z,4.33
2022-12-04T04:27:24.447Z,4.36
2022-12-04T04:29:53.147Z,4.38
2022-12-04T04:32:28.222Z,4.38
2022-12-04T04:35:00.926Z,4.39
2022-12-04T04:37:34.740Z,4.43
2022-12-04T04:40:06.837Z,4.44
2022-12-04T04:42:37.587Z,4.46
2022-12-04T04:45:08.068Z,4.48
2022-12-04T04:47:41.025Z,4.45
2022-12-04T04:50:12.427Z,4.42
2022-12-04T04:52:42.636Z,4.41
2022-12-04T04:55:11.753Z,4.43
2022-12-04T04:57:39.907Z,4.46
2022-12-04T05:00:11.375Z,4.49
2022-12-04T05:02:40.700Z,4.52
2022-12-04T05:05:09.855Z,4.53
2022-12-04T05:07:37.985Z,4.54
2022-12-04T05:10:07.582Z,4.56
2022-12-04T05:12:35.511Z,4.57
2022-12-04T05:15:03.892Z,4.59
2022-12-04T05:17:31.830Z,4.60
2022-12-04T05:20:01.325Z,4.64
2022-12-04T05:22:31.516Z,4.65
2022-12-04T05:25:00.265Z,4.67
2022-12-04T05:27:29.197Z,4.68
2022-12-04T05:29:58.689Z,4.70
2022-12-04T05:32:29.001Z,4.72
2022-12-04T05:34:57.981Z,4.74
2022-12-04T05:37:27.328Z,4.75
2022-12-04T05:39:56.041Z,4.74
2022-12-04T05:42:24.142Z,4.74
2022-12-04T05:44:52.317Z,4.75
2022-12-04T05:47:20.985Z,4.76
2022-12-04T05:49:49.195Z,4.79
2022-12-04T05:52:17.096Z,4.79
2022-12-04T05:54:46.566Z,4.78
2022-12-04T05:57:14.449Z,4.79
2022-12-04T05:59:42.761Z,4.79
2022-12-04T06:02:10.714Z,4.79
2022-12-04T06:04:39.085Z,4.74
2022-12-04T06:07:07.052Z,4.70
2022-12-04T06:09:35.209Z,4.68
2022-12-04T06:12:04.986Z,4.64
2022-12-04T06:14:39.150Z,4.65
2022-12-04T06:17:08.680Z,4.65
2022-12-04T06:19:36.786Z,4.65
2022-12-04T06:22:04.741Z,4.67
2022-12-04T06:24:32.894Z,4.70
2022-12-04T06:29:50.726Z,4.73
2022-12-04T06:32:21.862Z,4.75
2022-12-04T06:34:54.753Z,4.78
2022-12-04T06:37:25.013Z,4.74
2022-12-04T06:39:53.326Z,4.64
2022-12-04T06:42:21.440Z,4.66
2022-12-04T06:44:51.309Z,4.68
2022-12-04T06:47:19.342Z,4.70
2022-12-04T06:49:50.423Z,4.72
2022-12-04T06:52:18.724Z,4.72
2022-12-04T06:54:46.919Z,4.76
2022-12-04T06:57:14.816Z,4.79
2022-12-04T06:59:42.992Z,4.78
2022-12-04T07:02:12.382Z,4.83
2022-12-04T07:04:40.666Z,4.87
2022-12-04T07:07:09.819Z,4.87
2022-12-04T07:09:38.073Z,4.90
2022-12-04T07:12:06.863Z,4.87
2022-12-04T07:14:35.125Z,4.88
2022-12-04T07:17:03.362Z,4.90
2022-12-04T07:19:32.917Z,4.89
2022-12-04T07:22:00.830Z,4.92
2022-12-04T07:24:29.417Z,4.91
2022-12-04T07:26:57.385Z,4.89
2022-12-04T07:29:25.496Z,4.94
2022-12-04T07:31:53.505Z,4.93
2022-12-04T07:34:21.796Z,4.95
2022-12-04T07:36:51.034Z,4.96
2022-12-04T07:39:19.240Z,4.94
2022-12-04T07:41:47.101Z,4.95
2022-12-04T07:44:16.276Z,4.98
2022-12-04T07:46:44.297Z,4.99
2022-12-04T07:49:13.438Z,5.00
2022-12-04T07:51:41.344Z,5.02
2022-12-04T07:54:10.831Z,5.02
2022-12-04T07:56:38.742Z,5.03
2022-12-04T07:59:07.033Z,5.04
2022-12-04T08:01:35.111Z,5.05
2022-12-04T08:04:04.440Z,5.08
2022-12-04T08:06:36.044Z,5.10
2022-12-04T08:09:09.465Z,5.12
2022-12-04T08:11:39.563Z,5.12
2022-12-04T08:14:09.560Z,5.13
2022-12-04T08:16:37.797Z,5.16
2022-12-04T08:19:06.054Z,5.17
2022-12-04T08:21:34.437Z,5.16
2022-12-04T08:24:02.963Z,5.19
2022-12-04T08:26:32.168Z,5.25
2022-12-04T08:29:02.563Z,5.25
2022-12-04T08:31:33.710Z,5.24
2022-12-04T08:34:04.214Z,5.23
2022-12-04T08:36:32.878Z,5.24
2022-12-04T08:39:01.368Z,5.24
2022-12-04T08:41:29.563Z,5.26
2022-12-04T08:43:58.742Z,5.25
2022-12-04T08:46:29.122Z,5.24
2022-12-04T08:48:57.747Z,5.24
2022-12-04T08:51:27.739Z,5.25
2022-12-04T08:53:56.722Z,5.25
2022-12-04T08:56:25.549Z,5.23
2022-12-04T08:58:53.782Z,5.27
2022-12-04T09:01:21.800Z,5.29
2022-12-04T09:03:51.380Z,5.29
2022-12-04T09:06:19.578Z,5.29
2022-12-04T09:08:47.895Z,5.29
2022-12-04T09:11:19.258Z,5.29
2022-12-04T09:13:48.062Z,5.32
2022-12-04T09:16:18.903Z,5.32
2022-12-04T09:18:47.877Z,5.35
2022-12-04T09:21:19.312Z,5.33
2022-12-04T09:23:47.666Z,5.34
2022-12-04T09:26:20.011Z,5.36
2022-12-04T09:28:48.547Z,5.38
2022-12-04T09:31:17.008Z,5.40
2022-12-04T09:33:45.644Z,5.48
2022-12-04T09:36:16.260Z,5.48
2022-12-04T09:38:48.121Z,5.49
2022-12-04T09:41:29.321Z,5.51
2022-12-04T09:43:59.820Z,5.49
2022-12-04T09:46:30.314Z,5.52
2022-12-04T09:48:59.653Z,5.53
2022-12-04T09:51:28.221Z,5.53
2022-12-04T09:54:00.841Z,5.52
2022-12-04T09:56:30.681Z,5.55
2022-12-04T09:59:01.794Z,5.56
2022-12-04T10:01:34.335Z,5.56
2022-12-04T10:04:06.056Z,5.57
2022-12-04T10:06:39.127Z,5.53
2022-12-04T10:09:13.381Z,5.54
2022-12-04T10:11:47.690Z,5.56
2022-12-04T10:14:25.394Z,5.57
2022-12-04T10:17:09.607Z,5.59
2022-12-04T10:19:45.307Z,5.63
2022-12-04T10:22:17.458Z,5.63
2022-12-04T10:24:49.316Z,5.65
2022-12-04T10:27:22.378Z,5.66
2022-12-04T10:29:54.717Z,5.64
2022-12-04T10:32:25.633Z,5.61
2022-12-04T10:34:55.978Z,5.57
2022-12-04T10:37:24.479Z,5.55
2022-12-04T10:39:57.451Z,5.57
2022-12-04T10:42:32.538Z,5.59
2022-12-04T10:45:00.844Z,5.59
2022-12-04T10:47:29.013Z,5.59
2022-12-04T10:50:00.784Z,5.57
2022-12-04T10:52:29.043Z,5.54
2022-12-04T10:55:00.179Z,5.52
2022-12-04T10:57:39.558Z,5.48
2022-12-04T11:00:26.959Z,5.43
2022-12-04T11:02:57.974Z,5.39
2022-12-04T11:05:29.796Z,5.36
2022-12-04T11:07:58.609Z,5.29
2022-12-04T11:10:32.539Z,5.24
2022-12-04T11:13:02.943Z,5.19
2022-12-04T11:15:31.653Z,5.12
2022-12-04T11:18:08.869Z,5.09
2022-12-04T11:20:37.203Z,5.07
2022-12-04T11:23:06.045Z,5.05
2022-12-04T11:25:39.153Z,4.98
2022-12-04T11:28:07.093Z,4.94
2022-12-04T11:30:37.325Z,4.90
2022-12-04T11:33:08.234Z,4.85
2022-12-04T11:35:36.491Z,4.87
2022-12-04T11:38:08.765Z,4.85
2022-12-04T11:40:38.393Z,4.82
2022-12-04T11:43:13.605Z,4.83
2022-12-04T11:45:41.999Z,4.80
2022-12-04T11:48:16.317Z,4.83
2022-12-04T11:50:51.727Z,4.81
2022-12-04T11:53:27.041Z,4.79
2022-12-04T11:56:10.153Z,4.81
2022-12-04T11:59:08.938Z,4.81
2022-12-04T12:01:42.908Z,4.83
2022-12-04T12:04:51.073Z,4.84
2022-12-04T12:07:32.402Z,4.80
2022-12-04T12:10:05.357Z,4.72
2022-12-04T12:12:42.361Z,4.67
2022-12-04T12:15:20.722Z,4.67
2022-12-04T12:17:51.725Z,4.68
2022-12-04T12:20:23.207Z,4.68
2022-12-04T12:23:13.720Z,4.68
2022-12-04T12:25:52.094Z,4.67
2022-12-04T12:28:40.148Z,4.65
2022-12-04T12:31:22.848Z,4.64
2022-12-04T12:33:55.293Z,4.64
2022-12-04T12:36:25.573Z,4.66
2022-12-04T12:38:56.787Z,4.68
2022-12-04T12:41:26.627Z,4.68
2022-12-04T12:44:02.682Z,4.67
2022-12-04T12:46:35.456Z,4.67
2022-12-04T12:49:05.458Z,4.67
2022-12-04T12:51:36.496Z,4.67
2022-12-04T12:54:13.860Z,4.69
2022-12-04T12:59:33.481Z,4.69
2022-12-04T13:02:06.869Z,4.71
2022-12-04T13:04:39.960Z,4.69
2022-12-04T13:07:21.168Z,4.73
2022-12-04T13:09:51.887Z,4.80
2022-12-04T13:12:20.514Z,4.88
2022-12-04T13:14:50.118Z,4.93
2022-12-04T13:17:21.495Z,4.94
2022-12-04T13:19:53.769Z,5.02
2022-12-04T13:22:29.169Z,5.08
2022-12-04T13:25:09.774Z,5.12
2022-12-04T13:27:46.473Z,5.13
2022-12-04T13:30:20.101Z,5.12
2022-12-04T13:33:18.468Z,5.12
2022-12-04T13:36:14.898Z,5.12
2022-12-04T13:38:55.102Z,5.07
2022-12-04T13:41:27.314Z,4.99
2022-12-04T13:43:57.474Z,4.89
2022-12-04T13:46:35.351Z,4.80
2022-12-04T13:49:12.621Z,4.75
2022-12-04T13:51:41.548Z,4.71
2022-12-04T13:54:30.466Z,4.65
2022-12-04T13:57:16.119Z,4.59
2022-12-04T13:59:45.024Z,4.56
2022-12-04T14:02:29.822Z,4.52
2022-12-04T14:05:01.555Z,4.50
2022-12-04T14:07:32.234Z,4.49
2022-12-04T14:10:04.508Z,4.45
2022-12-04T14:12:34.890Z,4.52
2022-12-04T14:15:05.362Z,4.52
2022-12-04T14:17:36.801Z,4.57
2022-12-04T14:20:08.209Z,4.60
2022-12-04T14:22:44.732Z,4.63
2022-12-04T14:25:35.412Z,4.65
2022-12-04T14:28:15.522Z,4.65
2022-12-04T14:30:45.043Z,4.67
2022-12-04T14:33:18.710Z,4.70
2022-12-04T14:35:49.091Z,4.71
2022-12-04T14:38:20.088Z,4.71
2022-12-04T14:40:49.607Z,4.69
2022-12-04T14:43:19.909Z,4.67
2022-12-04T14:45:52.219Z,4.62
2022-12-04T14:48:30.523Z,4.60
2022-12-04T14:51:03.941Z,4.57
2022-12-04T14:53:37.169Z,4.50
2022-12-04T14:56:18.883Z,4.48
2022-12-04T14:58:47.104Z,4.45
2022-12-04T15:01:28.364Z,4.44
2022-12-04T15:04:00.051Z,4.39
2022-12-04T15:06:30.025Z,4.35
2022-12-04T15:09:20.106Z,4.35
2022-12-04T15:12:08.518Z,4.35
2022-12-04T15:14:43.484Z,4.36
2022-12-04T15:17:19.527Z,4.35
2022-12-04T15:19:49.522Z,4.34
2022-12-04T15:22:26.513Z,4.31
2022-12-04T15:24:55.818Z,4.31
2022-12-04T15:27:30.514Z,4.36
2022-12-04T15:30:02.776Z,4.39
2022-12-04T15:32:31.704Z,4.42
2022-12-04T15:35:04.081Z,4.45
2022-12-04T15:37:32.912Z,4.48
2022-12-04T15:40:01.300Z,4.49
2022-12-04T15:42:30.618Z,4.52
2022-12-04T15:45:01.057Z,4.56
2022-12-04T15:47:31.736Z,4.56
2022-12-04T15:50:10.758Z,4.57
2022-12-04T15:52:39.053Z,4.56
2022-12-04T15:55:09.418Z,4.54
2022-12-04T15:57:39.220Z,4.56
2022-12-04T16:00:09.773Z,4.54
2022-12-04T16:02:41.234Z,4.54
2022-12-04T16:05:15.211Z,4.53
2022-12-04T16:07:50.238Z,4.52
2022-12-04T16:10:23.457Z,4.50
2022-12-04T16:12:55.273Z,4.48
2022-12-04T16:15:23.805Z,4.45
2022-12-04T16:17:52.091Z,4.43
2022-12-04T16:20:22.038Z,4.47
2022-12-04T16:22:52.423Z,4.48
2022-12-04T16:25:20.792Z,4.47
2022-12-04T16:27:48.663Z,4.50
2022-12-04T16:30:17.118Z,4.52
2022-12-04T16:32:45.112Z,4.52
2022-12-04T16:35:16.946Z,4.54
2022-12-04T16:37:46.300Z,4.54
2022-12-04T16:40:15.862Z,4.52
2022-12-04T16:42:44.949Z,4.51
2022-12-04T16:45:22.730Z,4.49
2022-12-04T16:47:50.804Z,4.47
2022-12-04T16:50:19.100Z,4.42
2022-12-04T16:52:48.404Z,4.42
2022-12-04T16:55:19.851Z,4.38
2022-12-04T16:57:47.997Z,4.38
2022-12-04T17:00:17.361Z,4.37
2022-12-04T17:02:45.794Z,4.34
2022-12-04T17:05:19.249Z,4.33
2022-12-04T17:07:48.904Z,4.31
2022-12-04T17:10:21.998Z,4.27
2022-12-04T17:12:52.917Z,4.26
2022-12-04T17:15:21.430Z,4.24
2022-12-04T17:17:49.454Z,4.19
2022-12-04T17:20:19.351Z,4.19
2022-12-04T17:22:48.973Z,4.15
2022-12-04T17:25:17.822Z,4.12
2022-12-04T17:27:46.083Z,4.11
2022-12-04T17:30:15.525Z,4.09
2022-12-04T17:32:43.568Z,4.09
2022-12-04T17:35:13.292Z,4.09
2022-12-04T17:37:41.436Z,4.07
2022-12-04T17:40:12.965Z,4.05
2022-12-04T17:42:41.013Z,4.05
2022-12-04T17:45:12.023Z,4.04
2022-12-04T17:47:40.001Z,4.04
2022-12-04T17:50:08.966Z,4.04
2022-12-04T17:52:36.940Z,4.04
2022-12-04T17:55:07.563Z,4.05
2022-12-04T17:57:38.269Z,4.08
2022-12-04T18:00:08.788Z,4.12
2022-12-04T18:02:41.387Z,4.18
2022-12-04T18:05:10.300Z,4.22
2022-12-04T18:07:38.281Z,4.24
2022-12-04T18:10:08.061Z,4.26
2022-12-04T18:12:36.114Z,4.25
2022-12-04T18:15:06.681Z,4.25
2022-12-04T18:17:34.623Z,4.24
2022-12-04T18:20:05.447Z,4.23
2022-12-04T18:22:34.531Z,4.21
2022-12-04T18:25:03.379Z,4.19
2022-12-04T18:27:37.793Z,4.16
2022-12-04T18:30:12.618Z,4.16
2022-12-04T18:32:41.520Z,4.14
2022-12-04T18:35:15.215Z,4.14
2022-12-04T18:37:46.548Z,4.11
2022-12-04T18:40:15.645Z,4.10
2022-12-04T18:42:43.733Z,4.07
2022-12-04T18:45:13.863Z,4.06
2022-12-04T18:47:41.951Z,4.04
2022-12-04T18:50:10.844Z,4.05
2022-12-04T18:52:38.810Z,4.05
2022-12-04T18:55:07.425Z,4.05
2022-12-04T18:57:35.585Z,4.03
2022-12-04T19:00:08.232Z,4.03
2022-12-04T19:02:37.580Z,4.01
2022-12-04T19:05:06.101Z,3.99
2022-12-04T19:07:34.093Z,4.01
2022-12-04T19:10:11.228Z,4.01
2022-12-04T19:12:58.301Z,4.01
2022-12-04T19:15:26.681Z,4.00
2022-12-04T19:17:55.982Z,4.02
2022-12-04T19:20:24.135Z,4.03
2022-12-04T19:22:52.052Z,4.03
2022-12-04T19:25:20.436Z,4.04
2022-12-04T19:27:48.353Z,4.05
2022-12-04T19:30:16.613Z,4.06
2022-12-04T19:32:44.501Z,4.06
2022-12-04T19:35:14.294Z,4.06
2022-12-04T19:37:43.981Z,4.09
2022-12-04T19:40:15.722Z,4.09
2022-12-04T19:42:43.712Z,4.12
2022-12-04T19:45:12.262Z,4.12
2022-12-04T19:47:40.313Z,4.11
2022-12-04T19:50:09.322Z,4.10
2022-12-04T19:52:38.785Z,4.09
2022-12-04T19:55:08.834Z,4.08
2022-12-04T19:57:36.974Z,4.09
2022-12-04T20:00:06.767Z,4.09
2022-12-04T20:02:40.410Z,4.10
2022-12-04T20:05:09.634Z,4.13
2022-12-04T20:07:39.074Z,4.15
2022-12-04T20:10:08.862Z,4.19
2022-12-04T20:12:36.858Z,4.24
2022-12-04T20:15:06.222Z,4.26
2022-12-04T20:17:34.220Z,4.28
2022-12-04T20:20:02.614Z,4.31
2022-12-04T20:22:31.854Z,4.29
2022-12-04T20:25:01.597Z,4.27
2022-12-04T20:27:30.270Z,4.26
2022-12-04T20:29:59.212Z,4.27
2022-12-04T20:32:27.271Z,4.26
2022-12-04T20:34:55.907Z,4.29
2022-12-04T20:37:23.938Z,4.30
2022-12-04T20:39:52.209Z,4.33
2022-12-04T20:42:21.667Z,4.38
2022-12-04T20:44:50.347Z,4.40
2022-12-04T20:47:18.283Z,4.43
2022-12-04T20:49:47.281Z,4.43
2022-12-04T20:52:15.193Z,4.45
2022-12-04T20:54:43.963Z,4.44
2022-12-04T20:57:15.094Z,4.45
2022-12-04T20:59:44.669Z,4.44
2022-12-04T21:02:13.057Z,4.43
2022-12-04T21:04:42.035Z,4.40
2022-12-04T21:07:10.036Z,4.39
2022-12-04T21:09:38.233Z,4.38
2022-12-04T21:12:27.196Z,4.36
2022-12-04T21:15:14.620Z,4.35
2022-12-04T21:17:42.573Z,4.34
2022-12-04T21:20:11.763Z,4.33
2022-12-04T21:22:39.672Z,4.32
2022-12-04T21:25:08.978Z,4.33
2022-12-04T21:27:36.945Z,4.32
2022-12-04T21:30:08.214Z,4.36
2022-12-04T21:32:36.227Z,4.39
2022-12-04T21:35:05.045Z,4.43
2022-12-04T21:37:33.016Z,4.48
2022-12-04T21:40:01.493Z,4.54
2022-12-04T21:42:33.795Z,4.58
2022-12-04T21:45:03.141Z,4.57
2022-12-04T21:47:33.509Z,4.55
2022-12-04T21:50:01.805Z,4.53
2022-12-04T21:52:29.795Z,4.50
2022-12-04T21:55:01.087Z,4.45
2022-12-04T21:57:29.305Z,4.43
2022-12-04T21:59:57.795Z,4.41
2022-12-04T22:02:26.039Z,4.39
2022-12-04T22:04:55.709Z,4.36
2022-12-04T22:07:23.669Z,4.33
2022-12-04T22:09:52.615Z,4.33
2022-12-04T22:12:47.897Z,4.35
2022-12-04T22:15:09.740Z,4.37
2022-12-04T22:17:37.652Z,4.38
2022-12-04T22:20:08.616Z,4.39
2022-12-04T22:22:36.685Z,4.40
2022-12-04T22:25:05.139Z,4.39
2022-12-04T22:27:33.215Z,4.40
2022-12-04T22:30:01.893Z,4.44
2022-12-04T22:32:31.592Z,4.43
2022-12-04T22:34:59.731Z,4.46
2022-12-04T22:37:29.088Z,4.45
2022-12-04T22:39:57.543Z,4.46
2022-12-04T22:42:25.626Z,4.45
2022-12-04T22:44:53.840Z,4.45
2022-12-04T22:47:21.783Z,4.45
2022-12-04T22:49:50.073Z,4.45
2022-12-04T22:52:19.053Z,4.48
2022-12-04T22:54:50.805Z,4.48
2022-12-04T22:57:20.675Z,4.49
2022-12-04T22:59:48.893Z,4.50
2022-12-04T23:02:16.941Z,4.53
2022-12-04T23:04:45.581Z,4.55
2022-12-04T23:07:13.598Z,4.53
2022-12-04T23:09:41.856Z,4.53
2022-12-04T23:12:11.241Z,4.52
2022-12-04T23:14:39.477Z,4.50
2022-12-04T23:17:07.540Z,4.49
2022-12-04T23:19:35.860Z,4.50
2022-12-04T23:22:03.781Z,4.49
2022-12-04T23:24:33.156Z,4.50
2022-12-04T23:27:01.222Z,4.48
2022-12-04T23:32:18.779Z,4.46
2022-12-04T23:34:46.979Z,4.45
2022-12-04T23:37:14.946Z,4.43
2022-12-04T23:39:43.510Z,4.40
2022-12-04T23:42:11.836Z,4.40
2022-12-04T23:44:41.304Z,4.42
2022-12-04T23:47:09.280Z,4.42
2022-12-04T23:49:37.527Z,4.43
2022-12-04T23:52:05.801Z,4.46
2022-12-04T23:54:35.855Z,4.43
2022-12-04T23:57:03.792Z,4.41
2022-12-04T23:59:32.067Z,4.40
